sensor_id;sensor_type;location;lat;lon;timestamp;pressure;altitude;pressure_sealevel;temperature;humidity
22964;BME280;11648;49.306;6.934;2023-04-26T00:02:16;98546.88;;;9.58;59.00
22964;BME280;11648;49.306;6.934;2023-04-26T00:04:44;98550.41;;;9.50;58.90
22964;BME280;11648;49.306;6.934;2023-04-26T00:07:13;98551.28;;;9.49;58.65
22964;BME280;11648;49.306;6.934;2023-04-26T00:09:41;98550.44;;;9.45;58.42
22964;BME280;11648;49.306;6.934;2023-04-26T00:12:09;98561.84;;;9.38;58.74
22964;BME280;11648;49.306;6.934;2023-04-26T00:14:37;98552.25;;;9.35;58.45
22964;BME280;11648;49.306;6.934;2023-04-26T00:17:04;98556.66;;;9.29;59.08
22964;BME280;11648;49.306;6.934;2023-04-26T00:19:30;98558.34;;;9.39;58.55
22964;BME280;11648;49.306;6.934;2023-04-26T00:21:57;98563.63;;;9.36;58.50
22964;BME280;11648;49.306;6.934;2023-04-26T00:24:26;98561.03;;;9.30;58.48
22964;BME280;11648;49.306;6.934;2023-04-26T00:26:54;98569.78;;;9.29;58.29
22964;BME280;11648;49.306;6.934;2023-04-26T00:29:22;98564.53;;;9.29;58.98
22964;BME280;11648;49.306;6.934;2023-04-26T00:31:49;98562.81;;;9.25;57.87
22964;BME280;11648;49.306;6.934;2023-04-26T00:34:16;98565.44;;;9.22;57.94
22964;BME280;11648;49.306;6.934;2023-04-26T00:36:42;98566.34;;;9.18;58.58
22964;BME280;11648;49.306;6.934;2023-04-26T00:39:09;98560.19;;;9.20;58.52
22964;BME280;11648;49.306;6.934;2023-04-26T00:41:36;98560.22;;;9.16;58.76
22964;BME280;11648;49.306;6.934;2023-04-26T00:44:03;98563.72;;;9.15;59.68
22964;BME280;11648;49.306;6.934;2023-04-26T00:46:30;98561.97;;;9.15;59.00
22964;BME280;11648;49.306;6.934;2023-04-26T00:48:57;98562.00;;;9.08;59.39
22964;BME280;11648;49.306;6.934;2023-04-26T00:51:23;98562.00;;;8.99;59.88
22964;BME280;11648;49.306;6.934;2023-04-26T00:53:50;98556.78;;;8.88;59.96
22964;BME280;11648;49.306;6.934;2023-04-26T00:56:17;98550.66;;;8.92;59.72
22964;BME280;11648;49.306;6.934;2023-04-26T00:58:44;98550.66;;;8.95;59.80
22964;BME280;11648;49.306;6.934;2023-04-26T01:01:11;98562.00;;;8.99;59.20
22964;BME280;11648;49.306;6.934;2023-04-26T01:03:40;98555.00;;;8.94;59.56
22964;BME280;11648;49.306;6.934;2023-04-26T01:06:07;98548.91;;;8.88;59.65
22964;BME280;11648;49.306;6.934;2023-04-26T01:08:35;98548.06;;;8.90;59.60
22964;BME280;11648;49.306;6.934;2023-04-26T01:11:03;98556.78;;;8.94;59.44
22964;BME280;11648;49.306;6.934;2023-04-26T01:13:31;98552.41;;;8.93;59.17
22964;BME280;11648;49.306;6.934;2023-04-26T01:15:58;98555.03;;;8.88;58.73
22964;BME280;11648;49.306;6.934;2023-04-26T01:18:25;98552.47;;;8.79;59.40
22964;BME280;11648;49.306;6.934;2023-04-26T01:20:52;98549.84;;;8.76;59.09
22964;BME280;11648;49.306;6.934;2023-04-26T01:23:19;98546.34;;;8.73;59.58
22964;BME280;11648;49.306;6.934;2023-04-26T01:25:46;98546.34;;;8.76;59.41
22964;BME280;11648;49.306;6.934;2023-04-26T01:28:13;98551.59;;;8.73;59.41
22964;BME280;11648;49.306;6.934;2023-04-26T01:30:40;98551.63;;;8.65;59.69
22964;BME280;11648;49.306;6.934;2023-04-26T01:33:07;98543.72;;;8.68;59.58
22964;BME280;11648;49.306;6.934;2023-04-26T01:35:33;98548.09;;;8.72;59.33
22964;BME280;11648;49.306;6.934;2023-04-26T01:38:01;98544.59;;;8.75;59.90
22964;BME280;11648;49.306;6.934;2023-04-26T01:40:28;98542.00;;;8.64;59.82
22964;BME280;11648;49.306;6.934;2023-04-26T01:42:54;98541.13;;;8.53;59.39
22964;BME280;11648;49.306;6.934;2023-04-26T01:45:21;98546.38;;;8.41;60.00
22964;BME280;11648;49.306;6.934;2023-04-26T01:48:06;98549.03;;;8.44;59.33
22964;BME280;11648;49.306;6.934;2023-04-26T01:50:34;98547.25;;;8.46;59.32
22964;BME280;11648;49.306;6.934;2023-04-26T01:53:01;98556.03;;;8.40;59.63
22964;BME280;11648;49.306;6.934;2023-04-26T01:55:27;98556.88;;;8.42;59.91
22964;BME280;11648;49.306;6.934;2023-04-26T01:57:54;98558.63;;;8.45;59.43
22964;BME280;11648;49.306;6.934;2023-04-26T02:00:21;98549.00;;;8.42;59.39
22964;BME280;11648;49.306;6.934;2023-04-26T02:02:48;98556.03;;;8.36;60.46
22964;BME280;11648;49.306;6.934;2023-04-26T02:05:15;98556.00;;;8.37;60.33
22964;BME280;11648;49.306;6.934;2023-04-26T02:07:41;98556.88;;;8.30;60.14
22964;BME280;11648;49.306;6.934;2023-04-26T02:10:08;98551.63;;;8.21;60.19
22964;BME280;11648;49.306;6.934;2023-04-26T02:12:35;98559.47;;;8.23;60.42
22964;BME280;11648;49.306;6.934;2023-04-26T02:15:02;98557.75;;;8.25;60.41
22964;BME280;11648;49.306;6.934;2023-04-26T02:17:29;98561.25;;;8.18;60.08
22964;BME280;11648;49.306;6.934;2023-04-26T02:19:57;98558.63;;;8.15;60.42
22964;BME280;11648;49.306;6.934;2023-04-26T02:22:23;98556.84;;;8.14;60.56
22964;BME280;11648;49.306;6.934;2023-04-26T02:24:50;98549.88;;;8.08;60.53
22964;BME280;11648;49.306;6.934;2023-04-26T02:27:18;98550.75;;;8.15;60.69
22964;BME280;11648;49.306;6.934;2023-04-26T02:29:45;98544.63;;;8.04;61.01
22964;BME280;11648;49.306;6.934;2023-04-26T02:32:12;98554.25;;;7.97;61.43
22964;BME280;11648;49.306;6.934;2023-04-26T02:34:40;98553.34;;;7.98;61.99
22964;BME280;11648;49.306;6.934;2023-04-26T02:37:06;98562.09;;;7.95;62.06
22964;BME280;11648;49.306;6.934;2023-04-26T02:39:34;98555.97;;;8.06;62.23
22964;BME280;11648;49.306;6.934;2023-04-26T02:42:01;98550.72;;;8.06;61.60
22964;BME280;11648;49.306;6.934;2023-04-26T02:44:28;98546.38;;;8.06;61.24
22964;BME280;11648;49.306;6.934;2023-04-26T02:46:59;98538.50;;;8.02;61.26
22964;BME280;11648;49.306;6.934;2023-04-26T02:49:27;98546.38;;;8.00;61.95
22964;BME280;11648;49.306;6.934;2023-04-26T02:51:53;98546.38;;;7.89;61.69
22964;BME280;11648;49.306;6.934;2023-04-26T02:54:20;98542.88;;;7.93;60.98
22964;BME280;11648;49.306;6.934;2023-04-26T02:56:47;98540.22;;;7.90;61.79
22964;BME280;11648;49.306;6.934;2023-04-26T02:59:13;98542.88;;;7.86;61.56
22964;BME280;11648;49.306;6.934;2023-04-26T03:01:41;98540.22;;;7.90;61.66
22964;BME280;11648;49.306;6.934;2023-04-26T03:04:08;98538.50;;;7.92;61.73
22964;BME280;11648;49.306;6.934;2023-04-26T03:06:36;98545.50;;;7.92;60.61
22964;BME280;11648;49.306;6.934;2023-04-26T03:09:03;98539.38;;;7.93;61.19
22964;BME280;11648;49.306;6.934;2023-04-26T03:11:31;98541.13;;;7.92;61.26
22964;BME280;11648;49.306;6.934;2023-04-26T03:13:58;98523.66;;;7.93;60.79
22964;BME280;11648;49.306;6.934;2023-04-26T03:16:26;98530.63;;;7.88;60.55
22964;BME280;11648;49.306;6.934;2023-04-26T03:18:53;98537.63;;;7.78;60.32
22964;BME280;11648;49.306;6.934;2023-04-26T03:21:21;98527.13;;;7.71;60.79
22964;BME280;11648;49.306;6.934;2023-04-26T03:23:47;98521.03;;;7.75;60.29
22964;BME280;11648;49.306;6.934;2023-04-26T03:26:14;98531.50;;;7.75;60.28
22964;BME280;11648;49.306;6.934;2023-04-26T03:28:41;98525.38;;;7.71;60.21
22964;BME280;11648;49.306;6.934;2023-04-26T03:31:08;98526.25;;;7.67;60.25
22964;BME280;11648;49.306;6.934;2023-04-26T03:33:34;98524.50;;;7.63;60.46
22964;BME280;11648;49.306;6.934;2023-04-26T03:36:01;98528.88;;;7.61;61.09
22964;BME280;11648;49.306;6.934;2023-04-26T03:38:28;98524.47;;;7.59;60.52
22964;BME280;11648;49.306;6.934;2023-04-26T03:40:55;98525.38;;;7.67;60.96
22964;BME280;11648;49.306;6.934;2023-04-26T03:43:22;98530.59;;;7.64;60.63
22964;BME280;11648;49.306;6.934;2023-04-26T03:45:50;98529.72;;;7.59;60.88
22964;BME280;11648;49.306;6.934;2023-04-26T03:48:16;98526.25;;;7.64;60.76
22964;BME280;11648;49.306;6.934;2023-04-26T03:50:44;98527.09;;;7.62;60.95
22964;BME280;11648;49.306;6.934;2023-04-26T03:53:11;98527.94;;;7.55;61.23
22964;BME280;11648;49.306;6.934;2023-04-26T03:55:38;98526.22;;;7.58;61.03
22964;BME280;11648;49.306;6.934;2023-04-26T03:58:05;98522.72;;;7.59;60.96
22964;BME280;11648;49.306;6.934;2023-04-26T04:00:37;98529.72;;;7.54;60.92
22964;BME280;11648;49.306;6.934;2023-04-26T04:03:05;98528.84;;;7.57;60.92
22964;BME280;11648;49.306;6.934;2023-04-26T04:05:32;98528.84;;;7.55;61.17
22964;BME280;11648;49.306;6.934;2023-04-26T04:08:00;98529.72;;;7.54;60.83
22964;BME280;11648;49.306;6.934;2023-04-26T04:10:27;98534.09;;;7.57;60.90
22964;BME280;11648;49.306;6.934;2023-04-26T04:12:54;98533.19;;;7.50;60.86
22964;BME280;11648;49.306;6.934;2023-04-26T04:15:21;98532.31;;;7.48;60.87
22964;BME280;11648;49.306;6.934;2023-04-26T04:17:48;98527.06;;;7.51;60.81
22964;BME280;11648;49.306;6.934;2023-04-26T04:20:15;98535.81;;;7.45;60.60
22964;BME280;11648;49.306;6.934;2023-04-26T04:22:42;98535.81;;;7.49;60.57
22964;BME280;11648;49.306;6.934;2023-04-26T04:25:09;98528.84;;;7.51;60.57
22964;BME280;11648;49.306;6.934;2023-04-26T04:27:41;98527.09;;;7.47;60.67
22964;BME280;11648;49.306;6.934;2023-04-26T04:30:09;98538.44;;;7.47;60.97
22964;BME280;11648;49.306;6.934;2023-04-26T04:32:38;98539.28;;;7.47;60.75
22964;BME280;11648;49.306;6.934;2023-04-26T04:35:06;98541.91;;;7.46;60.49
22964;BME280;11648;49.306;6.934;2023-04-26T04:37:33;98546.25;;;7.44;60.35
22964;BME280;11648;49.306;6.934;2023-04-26T04:40:00;98548.91;;;7.50;60.48
22964;BME280;11648;49.306;6.934;2023-04-26T04:42:30;98555.88;;;7.45;59.91
22964;BME280;11648;49.306;6.934;2023-04-26T04:44:58;98555.03;;;7.54;60.23
22964;BME280;11648;49.306;6.934;2023-04-26T04:47:26;98557.66;;;7.52;60.42
22964;BME280;11648;49.306;6.934;2023-04-26T04:49:53;98568.16;;;7.61;60.21
22964;BME280;11648;49.306;6.934;2023-04-26T04:52:19;98562.94;;;7.76;60.63
22964;BME280;11648;49.306;6.934;2023-04-26T04:54:47;98558.59;;;7.84;60.20
22964;BME280;11648;49.306;6.934;2023-04-26T04:57:14;98553.34;;;7.86;60.05
22964;BME280;11648;49.306;6.934;2023-04-26T04:59:43;98550.72;;;7.81;60.29
22964;BME280;11648;49.306;6.934;2023-04-26T05:02:10;98554.25;;;7.86;60.21
22964;BME280;11648;49.306;6.934;2023-04-26T05:04:37;98559.47;;;8.03;60.40
22964;BME280;11648;49.306;6.934;2023-04-26T05:07:04;98547.25;;;8.19;60.26
22964;BME280;11648;49.306;6.934;2023-04-26T05:09:32;98556.88;;;8.35;60.23
22964;BME280;11648;49.306;6.934;2023-04-26T05:11:59;98560.34;;;8.63;59.72
22964;BME280;11648;49.306;6.934;2023-04-26T05:14:28;98561.22;;;8.66;58.70
22964;BME280;11648;49.306;6.934;2023-04-26T05:16:55;98572.56;;;8.80;57.58
22964;BME280;11648;49.306;6.934;2023-04-26T05:19:23;98572.47;;;9.14;57.24
22964;BME280;11648;49.306;6.934;2023-04-26T05:21:51;98572.28;;;9.53;56.95
22964;BME280;11648;49.306;6.934;2023-04-26T05:24:18;98569.56;;;9.73;55.93
22964;BME280;11648;49.306;6.934;2023-04-26T05:26:46;98573.75;;;10.04;55.01
22964;BME280;11648;49.306;6.934;2023-04-26T05:29:31;98572.66;;;10.37;54.63
22964;BME280;11648;49.306;6.934;2023-04-26T05:32:04;98570.41;;;10.87;54.07
22964;BME280;11648;49.306;6.934;2023-04-26T05:34:50;98558.66;;;11.19;53.23
22964;BME280;11648;49.306;6.934;2023-04-26T05:37:17;98566.19;;;11.48;51.72
22964;BME280;11648;49.306;6.934;2023-04-26T05:39:44;98558.69;;;11.83;51.57
22964;BME280;11648;49.306;6.934;2023-04-26T05:42:10;98553.16;;;12.03;50.44
22964;BME280;11648;49.306;6.934;2023-04-26T05:44:38;98549.53;;;12.10;50.65
22964;BME280;11648;49.306;6.934;2023-04-26T05:47:05;98553.81;;;12.15;50.32
22964;BME280;11648;49.306;6.934;2023-04-26T05:49:32;98558.75;;;11.81;50.85
22964;BME280;11648;49.306;6.934;2023-04-26T05:51:58;98574.16;;;11.43;51.98
22964;BME280;11648;49.306;6.934;2023-04-26T05:54:29;98579.50;;;11.35;52.05
22964;BME280;11648;49.306;6.934;2023-04-26T05:56:56;98573.75;;;11.06;53.04
22964;BME280;11648;49.306;6.934;2023-04-26T05:59:25;98582.53;;;11.04;53.15
22964;BME280;11648;49.306;6.934;2023-04-26T06:01:52;98578.25;;;10.95;53.61
22964;BME280;11648;49.306;6.934;2023-04-26T06:04:19;98581.47;;;11.18;52.85
22964;BME280;11648;49.306;6.934;2023-04-26T06:06:59;98570.28;;;11.74;52.08
22964;BME280;11648;49.306;6.934;2023-04-26T06:09:26;98559.69;;;12.32;49.44
22964;BME280;11648;49.306;6.934;2023-04-26T06:11:52;98555.56;;;12.68;48.08
22964;BME280;11648;49.306;6.934;2023-04-26T06:14:19;98555.00;;;13.00;47.84
22964;BME280;11648;49.306;6.934;2023-04-26T06:16:58;98545.13;;;13.51;47.26
22964;BME280;11648;49.306;6.934;2023-04-26T06:19:27;98542.63;;;13.45;47.27
22964;BME280;11648;49.306;6.934;2023-04-26T06:21:53;98554.97;;;13.45;47.48
22964;BME280;11648;49.306;6.934;2023-04-26T06:24:22;98554.69;;;13.58;47.73
22964;BME280;11648;49.306;6.934;2023-04-26T06:26:52;98552.13;;;14.32;46.26
22964;BME280;11648;49.306;6.934;2023-04-26T06:29:20;98550.84;;;15.14;43.96
22964;BME280;11648;49.306;6.934;2023-04-26T06:31:47;98533.28;;;16.00;41.96
22964;BME280;11648;49.306;6.934;2023-04-26T06:34:13;98529.28;;;16.68;40.25
22964;BME280;11648;49.306;6.934;2023-04-26T06:36:40;98520.88;;;17.30;39.43
22964;BME280;11648;49.306;6.934;2023-04-26T06:39:08;98520.94;;;17.98;38.38
22964;BME280;11648;49.306;6.934;2023-04-26T06:41:37;98528.78;;;18.45;37.90
22964;BME280;11648;49.306;6.934;2023-04-26T06:44:04;98527.22;;;18.61;37.13
22964;BME280;11648;49.306;6.934;2023-04-26T06:46:31;98522.53;;;17.33;37.85
22964;BME280;11648;49.306;6.934;2023-04-26T06:48:58;98528.25;;;16.97;39.29
22964;BME280;11648;49.306;6.934;2023-04-26T06:51:24;98522.44;;;17.11;39.12
22964;BME280;11648;49.306;6.934;2023-04-26T06:53:52;98521.97;;;17.94;38.80
22964;BME280;11648;49.306;6.934;2023-04-26T06:56:19;98511.47;;;19.17;37.07
22964;BME280;11648;49.306;6.934;2023-04-26T06:58:59;98498.72;;;19.62;35.82
22964;BME280;11648;49.306;6.934;2023-04-26T07:01:27;98504.56;;;19.70;35.78
22964;BME280;11648;49.306;6.934;2023-04-26T07:03:55;98505.22;;;19.76;34.78
22964;BME280;11648;49.306;6.934;2023-04-26T07:06:25;98524.16;;;18.28;35.50
22964;BME280;11648;49.306;6.934;2023-04-26T07:08:51;98526.97;;;17.09;36.56
22964;BME280;11648;49.306;6.934;2023-04-26T07:11:19;98535.38;;;16.97;38.44
22964;BME280;11648;49.306;6.934;2023-04-26T07:13:48;98529.25;;;16.95;38.29
22964;BME280;11648;49.306;6.934;2023-04-26T07:16:15;98525.38;;;16.78;38.15
22964;BME280;11648;49.306;6.934;2023-04-26T07:18:42;98522.59;;;17.06;38.25
22964;BME280;11648;49.306;6.934;2023-04-26T07:21:09;98526.97;;;17.09;38.10
22964;BME280;11648;49.306;6.934;2023-04-26T07:23:35;98520.72;;;17.58;37.26
22964;BME280;11648;49.306;6.934;2023-04-26T07:26:02;98522.56;;;18.24;36.35
22964;BME280;11648;49.306;6.934;2023-04-26T07:28:30;98510.75;;;18.51;34.57
22964;BME280;11648;49.306;6.934;2023-04-26T07:30:58;98506.25;;;19.14;34.70
22964;BME280;11648;49.306;6.934;2023-04-26T07:33:25;98496.50;;;19.13;34.02
22964;BME280;11648;49.306;6.934;2023-04-26T07:35:57;98492.28;;;19.85;33.45
22964;BME280;11648;49.306;6.934;2023-04-26T07:38:24;98486.59;;;20.47;32.24
22964;BME280;11648;49.306;6.934;2023-04-26T07:40:51;98490.34;;;20.78;32.72
22964;BME280;11648;49.306;6.934;2023-04-26T07:43:19;98494.47;;;21.19;31.21
22964;BME280;11648;49.306;6.934;2023-04-26T07:45:46;98484.13;;;20.77;30.07
22964;BME280;11648;49.306;6.934;2023-04-26T07:48:12;98488.03;;;20.00;30.75
22964;BME280;11648;49.306;6.934;2023-04-26T07:50:39;98490.91;;;19.77;31.26
22964;BME280;11648;49.306;6.934;2023-04-26T07:53:06;98499.44;;;19.66;30.94
22964;BME280;11648;49.306;6.934;2023-04-26T07:55:32;98492.50;;;19.99;31.44
22964;BME280;11648;49.306;6.934;2023-04-26T07:57:59;98486.03;;;20.22;30.52
22964;BME280;11648;49.306;6.934;2023-04-26T08:00:26;98486.19;;;20.72;29.88
22964;BME280;11648;49.306;6.934;2023-04-26T08:02:53;98476.56;;;22.01;29.58
22964;BME280;11648;49.306;6.934;2023-04-26T08:05:20;98475.25;;;22.53;27.37
22964;BME280;11648;49.306;6.934;2023-04-26T08:07:47;98474.44;;;22.97;28.06
22964;BME280;11648;49.306;6.934;2023-04-26T08:10:14;98476.16;;;23.70;27.32
22964;BME280;11648;49.306;6.934;2023-04-26T08:12:41;98477.75;;;23.16;27.32
22964;BME280;11648;49.306;6.934;2023-04-26T08:15:08;98482.31;;;23.00;27.72
22964;BME280;11648;49.306;6.934;2023-04-26T08:17:35;98485.41;;;22.48;28.23
22964;BME280;11648;49.306;6.934;2023-04-26T08:20:02;98469.19;;;22.50;26.87
22964;BME280;11648;49.306;6.934;2023-04-26T08:22:31;98472.81;;;22.19;25.94
22964;BME280;11648;49.306;6.934;2023-04-26T08:24:58;98460.22;;;23.81;25.37
22964;BME280;11648;49.306;6.934;2023-04-26T08:27:24;98455.03;;;25.86;23.36
22964;BME280;11648;49.306;6.934;2023-04-26T08:29:51;98439.34;;;26.75;20.94
22964;BME280;11648;49.306;6.934;2023-04-26T08:32:18;98447.81;;;26.23;21.26
22964;BME280;11648;49.306;6.934;2023-04-26T08:34:44;98458.03;;;25.94;21.68
22964;BME280;11648;49.306;6.934;2023-04-26T08:37:12;98465.91;;;24.44;22.98
22964;BME280;11648;49.306;6.934;2023-04-26T08:39:39;98476.41;;;23.94;23.50
22964;BME280;11648;49.306;6.934;2023-04-26T08:42:14;98472.97;;;23.49;24.03
22964;BME280;11648;49.306;6.934;2023-04-26T08:44:42;98474.44;;;23.69;24.36
22964;BME280;11648;49.306;6.934;2023-04-26T08:47:15;98486.78;;;23.29;25.96
22964;BME280;11648;49.306;6.934;2023-04-26T08:49:45;98486.34;;;22.47;25.83
22964;BME280;11648;49.306;6.934;2023-04-26T08:52:19;98481.91;;;22.62;25.29
22964;BME280;11648;49.306;6.934;2023-04-26T08:54:49;98487.41;;;22.29;25.83
22964;BME280;11648;49.306;6.934;2023-04-26T08:57:18;98496.66;;;21.77;26.20
22964;BME280;11648;49.306;6.934;2023-04-26T08:59:45;98496.47;;;21.64;27.20
22964;BME280;11648;49.306;6.934;2023-04-26T09:02:16;98494.78;;;21.46;26.80
22964;BME280;11648;49.306;6.934;2023-04-26T09:04:48;98484.81;;;21.32;26.97
22964;BME280;11648;49.306;6.934;2023-04-26T09:07:40;98483.19;;;20.78;27.12
22964;BME280;11648;49.306;6.934;2023-04-26T09:10:09;98489.88;;;20.52;27.33
22964;BME280;11648;49.306;6.934;2023-04-26T09:12:36;98493.81;;;20.45;27.85
22964;BME280;11648;49.306;6.934;2023-04-26T09:15:04;98494.88;;;20.41;29.16
22964;BME280;11648;49.306;6.934;2023-04-26T09:17:34;98490.84;;;19.97;28.06
22964;BME280;11648;49.306;6.934;2023-04-26T09:20:27;98491.78;;;19.96;28.22
22964;BME280;11648;49.306;6.934;2023-04-26T09:25:32;98501.31;;;19.64;31.77
22964;BME280;11648;49.306;6.934;2023-04-26T09:27:59;98492.44;;;19.82;30.24
22964;BME280;11648;49.306;6.934;2023-04-26T09:30:27;98493.63;;;19.94;30.58
22964;BME280;11648;49.306;6.934;2023-04-26T09:33:01;98499.69;;;19.97;30.98
22964;BME280;11648;49.306;6.934;2023-04-26T09:35:36;98491.78;;;20.50;30.01
22964;BME280;11648;49.306;6.934;2023-04-26T09:38:08;98489.16;;;20.66;28.17
22964;BME280;11648;49.306;6.934;2023-04-26T09:40:49;98486.28;;;21.38;27.54
22964;BME280;11648;49.306;6.934;2023-04-26T09:43:17;98487.63;;;21.46;27.03
22964;BME280;11648;49.306;6.934;2023-04-26T09:48:21;98483.47;;;21.24;27.01
22964;BME280;11648;49.306;6.934;2023-04-26T09:50:50;98486.50;;;21.00;27.68
22964;BME280;11648;49.306;6.934;2023-04-26T09:53:46;98484.13;;;19.88;27.96
22964;BME280;11648;49.306;6.934;2023-04-26T09:56:17;98479.03;;;20.01;27.21
22964;BME280;11648;49.306;6.934;2023-04-26T10:01:14;98483.69;;;20.69;27.06
22964;BME280;11648;49.306;6.934;2023-04-26T10:03:42;98470.91;;;21.26;27.40
22964;BME280;11648;49.306;6.934;2023-04-26T10:06:11;98466.31;;;21.92;26.21
22964;BME280;11648;49.306;6.934;2023-04-26T10:08:38;98463.94;;;22.78;25.62
22964;BME280;11648;49.306;6.934;2023-04-26T10:11:05;98460.09;;;23.26;24.48
22964;BME280;11648;49.306;6.934;2023-04-26T10:13:39;98444.09;;;23.67;24.01
22964;BME280;11648;49.306;6.934;2023-04-26T10:16:07;98442.06;;;23.85;23.73
22964;BME280;11648;49.306;6.934;2023-04-26T10:18:35;98435.34;;;23.35;23.58
22964;BME280;11648;49.306;6.934;2023-04-26T10:21:30;98451.81;;;22.11;25.36
22964;BME280;11648;49.306;6.934;2023-04-26T10:24:00;98455.34;;;21.96;26.06
22964;BME280;11648;49.306;6.934;2023-04-26T10:26:50;98448.16;;;22.74;25.20
22964;BME280;11648;49.306;6.934;2023-04-26T10:29:30;98443.31;;;23.65;24.14
22964;BME280;11648;49.306;6.934;2023-04-26T10:32:12;98422.13;;;24.01;23.43
22964;BME280;11648;49.306;6.934;2023-04-26T10:34:43;98423.19;;;24.65;23.83
22964;BME280;11648;49.306;6.934;2023-04-26T10:39:41;98420.63;;;24.76;23.45
22964;BME280;11648;49.306;6.934;2023-04-26T10:42:19;98418.13;;;25.13;22.44
22964;BME280;11648;49.306;6.934;2023-04-26T10:44:52;98416.59;;;25.46;23.45
22964;BME280;11648;49.306;6.934;2023-04-26T10:47:33;98410.56;;;25.05;22.12
22964;BME280;11648;49.306;6.934;2023-04-26T10:50:07;98404.81;;;24.32;23.59
22964;BME280;11648;49.306;6.934;2023-04-26T10:52:36;98393.97;;;24.98;22.83
22964;BME280;11648;49.306;6.934;2023-04-26T10:55:03;98399.38;;;25.85;22.06
22964;BME280;11648;49.306;6.934;2023-04-26T10:57:48;98395.63;;;25.99;21.83
22964;BME280;11648;49.306;6.934;2023-04-26T11:00:25;98389.22;;;26.71;21.63
22964;BME280;11648;49.306;6.934;2023-04-26T11:03:06;98371.78;;;28.52;20.96
22964;BME280;11648;49.306;6.934;2023-04-26T11:10:38;98365.25;;;33.26;15.54
22964;BME280;11648;49.306;6.934;2023-04-26T11:13:06;98362.56;;;33.09;16.12
22964;BME280;11648;49.306;6.934;2023-04-26T11:15:34;98363.97;;;32.34;15.91
22964;BME280;11648;49.306;6.934;2023-04-26T11:18:02;98361.88;;;32.46;16.80
22964;BME280;11648;49.306;6.934;2023-04-26T11:20:31;98364.75;;;32.62;16.16
22964;BME280;11648;49.306;6.934;2023-04-26T11:22:58;98369.25;;;31.26;17.04
22964;BME280;11648;49.306;6.934;2023-04-26T11:25:26;98365.41;;;31.19;17.31
22964;BME280;11648;49.306;6.934;2023-04-26T11:28:00;98372.56;;;29.25;18.82
22964;BME280;11648;49.306;6.934;2023-04-26T11:30:29;98377.69;;;28.45;19.11
22964;BME280;11648;49.306;6.934;2023-04-26T11:32:58;98372.19;;;28.88;18.80
22964;BME280;11648;49.306;6.934;2023-04-26T11:35:25;98362.50;;;29.77;17.91
22964;BME280;11648;49.306;6.934;2023-04-26T11:37:58;98355.75;;;30.21;17.20
22964;BME280;11648;49.306;6.934;2023-04-26T11:40:29;98364.66;;;29.13;19.10
22964;BME280;11648;49.306;6.934;2023-04-26T11:43:00;98355.06;;;29.79;17.83
22964;BME280;11648;49.306;6.934;2023-04-26T11:45:27;98353.28;;;31.14;17.55
22964;BME280;11648;49.306;6.934;2023-04-26T11:47:54;98354.34;;;30.55;17.75
22964;BME280;11648;49.306;6.934;2023-04-26T11:50:23;98356.91;;;28.67;18.44
22964;BME280;11648;49.306;6.934;2023-04-26T11:52:56;98357.53;;;27.08;19.32
22964;BME280;11648;49.306;6.934;2023-04-26T11:55:26;98356.25;;;28.54;19.34
22964;BME280;11648;49.306;6.934;2023-04-26T11:57:53;98356.66;;;28.17;19.35
22964;BME280;11648;49.306;6.934;2023-04-26T12:00:21;98361.09;;;27.64;20.35
22964;BME280;11648;49.306;6.934;2023-04-26T12:02:48;98360.47;;;26.59;21.96
22964;BME280;11648;49.306;6.934;2023-04-26T12:05:26;98372.53;;;26.31;22.42
22964;BME280;11648;49.306;6.934;2023-04-26T12:07:58;98376.91;;;26.21;22.63
22964;BME280;11648;49.306;6.934;2023-04-26T12:10:27;98374.84;;;25.65;22.29
22964;BME280;11648;49.306;6.934;2023-04-26T12:12:55;98372.56;;;25.71;22.11
22964;BME280;11648;49.306;6.934;2023-04-26T12:15:33;98374.53;;;25.57;21.92
22964;BME280;11648;49.306;6.934;2023-04-26T12:18:07;98367.50;;;25.90;21.09
22964;BME280;11648;49.306;6.934;2023-04-26T12:20:37;98356.44;;;26.65;21.15
22964;BME280;11648;49.306;6.934;2023-04-26T12:25:33;98367.84;;;24.61;23.04
22964;BME280;11648;49.306;6.934;2023-04-26T12:28:02;98375.88;;;24.09;23.18
22964;BME280;11648;49.306;6.934;2023-04-26T12:30:30;98369.63;;;23.96;23.33
22964;BME280;11648;49.306;6.934;2023-04-26T12:33:03;98381.78;;;23.60;24.14
22964;BME280;11648;49.306;6.934;2023-04-26T12:35:42;98367.56;;;24.14;23.60
22964;BME280;11648;49.306;6.934;2023-04-26T12:38:09;98379.84;;;24.03;24.29
22964;BME280;11648;49.306;6.934;2023-04-26T12:40:38;98375.72;;;23.71;25.10
22964;BME280;11648;49.306;6.934;2023-04-26T12:43:05;98379.25;;;23.02;25.26
22964;BME280;11648;49.306;6.934;2023-04-26T12:45:32;98369.53;;;22.86;25.19
22964;BME280;11648;49.306;6.934;2023-04-26T12:47:59;98376.38;;;23.20;25.32
22964;BME280;11648;49.306;6.934;2023-04-26T12:50:25;98374.91;;;23.00;24.10
22964;BME280;11648;49.306;6.934;2023-04-26T12:52:53;98375.41;;;23.35;25.05
22964;BME280;11648;49.306;6.934;2023-04-26T12:55:20;98369.88;;;23.65;25.07
22964;BME280;11648;49.306;6.934;2023-04-26T12:57:46;98374.72;;;23.03;24.53
22964;BME280;11648;49.306;6.934;2023-04-26T13:00:15;98377.13;;;23.07;24.63
22964;BME280;11648;49.306;6.934;2023-04-26T13:02:43;98377.50;;;23.30;24.51
22964;BME280;11648;49.306;6.934;2023-04-26T13:05:10;98369.63;;;23.41;23.83
22964;BME280;11648;49.306;6.934;2023-04-26T13:07:40;98371.63;;;23.66;25.07
22964;BME280;11648;49.306;6.934;2023-04-26T13:10:08;98369.34;;;23.86;24.42
22964;BME280;11648;49.306;6.934;2023-04-26T13:12:38;98367.06;;;23.80;24.34
22964;BME280;11648;49.306;6.934;2023-04-26T13:15:06;98367.50;;;23.87;23.79
22964;BME280;11648;49.306;6.934;2023-04-26T13:17:35;98372.50;;;23.52;25.81
22964;BME280;11648;49.306;6.934;2023-04-26T13:20:04;98374.16;;;23.26;24.41
22964;BME280;11648;49.306;6.934;2023-04-26T13:22:32;98372.59;;;23.22;24.76
22964;BME280;11648;49.306;6.934;2023-04-26T13:24:59;98360.72;;;22.84;25.54
22964;BME280;11648;49.306;6.934;2023-04-26T13:27:26;98377.31;;;22.16;25.93
22964;BME280;11648;49.306;6.934;2023-04-26T13:29:57;98379.59;;;22.08;26.96
22964;BME280;11648;49.306;6.934;2023-04-26T13:32:23;98377.53;;;21.98;26.28